sensor_id;sensor_type;location;lat;lon;timestamp;P1;durP1;ratioP1;P2;durP2;ratioP2
10031;SDS011;5056;44.272;19.892;2022-08-21T00:01:39;4.32;;;4.03;;
10031;SDS011;5056;44.272;19.892;2022-08-21T00:04:06;4.25;;;3.90;;
10031;SDS011;5056;44.272;19.892;2022-08-21T00:06:34;4.40;;;4.10;;
10031;SDS011;5056;44.272;19.892;2022-08-21T00:09:05;4.95;;;3.78;;
10031;SDS011;5056;44.272;19.892;2022-08-21T00:11:44;4.00;;;3.55;;
10031;SDS011;5056;44.272;19.892;2022-08-21T00:14:12;4.07;;;3.88;;
10031;SDS011;5056;44.272;19.892;2022-08-21T00:16:45;4.25;;;3.95;;
10031;SDS011;5056;44.272;19.892;2022-08-21T00:19:11;4.20;;;3.80;;
10031;SDS011;5056;44.272;19.892;2022-08-21T00:21:39;3.92;;;3.72;;
10031;SDS011;5056;44.272;19.892;2022-08-21T00:24:09;3.80;;;3.53;;
10031;SDS011;5056;44.272;19.892;2022-08-21T00:26:37;4.43;;;3.92;;
10031;SDS011;5056;44.272;19.892;2022-08-21T00:29:04;4.07;;;3.70;;
10031;SDS011;5056;44.272;19.892;2022-08-21T00:31:37;4.55;;;4.15;;
10031;SDS011;5056;44.272;19.892;2022-08-21T00:34:04;4.10;;;3.80;;
10031;SDS011;5056;44.272;19.892;2022-08-21T00:36:33;4.50;;;4.10;;
10031;SDS011;5056;44.272;19.892;2022-08-21T00:39:03;4.28;;;3.85;;
10031;SDS011;5056;44.272;19.892;2022-08-21T00:41:37;4.53;;;4.13;;
10031;SDS011;5056;44.272;19.892;2022-08-21T00:44:06;5.25;;;3.88;;
10031;SDS011;5056;44.272;19.892;2022-08-21T00:46:37;3.83;;;3.53;;
10031;SDS011;5056;44.272;19.892;2022-08-21T00:49:05;4.18;;;3.85;;
10031;SDS011;5056;44.272;19.892;2022-08-21T00:51:33;3.97;;;3.67;;
10031;SDS011;5056;44.272;19.892;2022-08-21T00:54:02;3.78;;;3.58;;
10031;SDS011;5056;44.272;19.892;2022-08-21T00:56:38;4.30;;;3.90;;
10031;SDS011;5056;44.272;19.892;2022-08-21T00:59:05;5.30;;;3.97;;
10031;SDS011;5056;44.272;19.892;2022-08-21T01:01:34;3.85;;;3.50;;
10031;SDS011;5056;44.272;19.892;2022-08-21T01:04:02;4.65;;;4.07;;
10031;SDS011;5056;44.272;19.892;2022-08-21T01:06:30;4.90;;;4.53;;
10031;SDS011;5056;44.272;19.892;2022-08-21T01:09:03;4.38;;;3.97;;
10031;SDS011;5056;44.272;19.892;2022-08-21T01:11:30;3.72;;;3.53;;
10031;SDS011;5056;44.272;19.892;2022-08-21T01:14:02;4.47;;;4.07;;
10031;SDS011;5056;44.272;19.892;2022-08-21T01:16:29;6.15;;;3.78;;
10031;SDS011;5056;44.272;19.892;2022-08-21T01:19:11;3.92;;;3.65;;
10031;SDS011;5056;44.272;19.892;2022-08-21T01:21:48;5.05;;;4.13;;
10031;SDS011;5056;44.272;19.892;2022-08-21T01:24:20;4.13;;;3.83;;
10031;SDS011;5056;44.272;19.892;2022-08-21T01:26:49;3.80;;;3.50;;
10031;SDS011;5056;44.272;19.892;2022-08-21T01:29:30;4.18;;;3.78;;
10031;SDS011;5056;44.272;19.892;2022-08-21T01:32:03;4.55;;;4.20;;
10031;SDS011;5056;44.272;19.892;2022-08-21T01:34:36;4.93;;;3.58;;
10031;SDS011;5056;44.272;19.892;2022-08-21T01:37:06;6.28;;;3.75;;
10031;SDS011;5056;44.272;19.892;2022-08-21T01:39:33;4.57;;;4.22;;
10031;SDS011;5056;44.272;19.892;2022-08-21T01:44:58;4.40;;;4.10;;
10031;SDS011;5056;44.272;19.892;2022-08-21T01:47:25;4.70;;;4.30;;
10031;SDS011;5056;44.272;19.892;2022-08-21T01:49:53;4.55;;;4.22;;
10031;SDS011;5056;44.272;19.892;2022-08-21T01:52:22;4.63;;;4.22;;
10031;SDS011;5056;44.272;19.892;2022-08-21T01:54:49;4.40;;;4.05;;
10031;SDS011;5056;44.272;19.892;2022-08-21T01:57:25;6.65;;;4.45;;
10031;SDS011;5056;44.272;19.892;2022-08-21T01:59:52;5.28;;;4.78;;
10031;SDS011;5056;44.272;19.892;2022-08-21T02:02:20;5.50;;;4.50;;
10031;SDS011;5056;44.272;19.892;2022-08-21T02:04:47;4.70;;;4.22;;
10031;SDS011;5056;44.272;19.892;2022-08-21T02:07:14;4.70;;;4.22;;
10031;SDS011;5056;44.272;19.892;2022-08-21T02:09:44;4.78;;;4.30;;
10031;SDS011;5056;44.272;19.892;2022-08-21T02:12:11;5.93;;;4.45;;
10031;SDS011;5056;44.272;19.892;2022-08-21T02:14:38;5.45;;;4.40;;
10031;SDS011;5056;44.272;19.892;2022-08-21T02:17:13;4.72;;;4.32;;
10031;SDS011;5056;44.272;19.892;2022-08-21T02:19:40;6.30;;;4.90;;
10031;SDS011;5056;44.272;19.892;2022-08-21T02:22:09;4.80;;;4.40;;
10031;SDS011;5056;44.272;19.892;2022-08-21T02:24:57;6.10;;;4.25;;
10031;SDS011;5056;44.272;19.892;2022-08-21T02:27:24;4.38;;;3.97;;
10031;SDS011;5056;44.272;19.892;2022-08-21T02:29:51;5.10;;;4.70;;
10031;SDS011;5056;44.272;19.892;2022-08-21T02:35:10;4.80;;;4.40;;
10031;SDS011;5056;44.272;19.892;2022-08-21T02:37:57;4.72;;;4.32;;
10031;SDS011;5056;44.272;19.892;2022-08-21T02:40:27;5.60;;;5.00;;
10031;SDS011;5056;44.272;19.892;2022-08-21T02:42:56;5.32;;;4.63;;
10031;SDS011;5056;44.272;19.892;2022-08-21T02:48:06;5.07;;;4.57;;
10031;SDS011;5056;44.272;19.892;2022-08-21T02:50:46;5.78;;;5.07;;
10031;SDS011;5056;44.272;19.892;2022-08-21T02:53:15;4.88;;;4.47;;
10031;SDS011;5056;44.272;19.892;2022-08-21T02:55:46;7.28;;;4.97;;
10031;SDS011;5056;44.272;19.892;2022-08-21T02:58:18;4.95;;;4.55;;
10031;SDS011;5056;44.272;19.892;2022-08-21T03:00:48;6.57;;;4.82;;
10031;SDS011;5056;44.272;19.892;2022-08-21T03:03:16;5.32;;;4.90;;
10031;SDS011;5056;44.272;19.892;2022-08-21T03:05:47;5.70;;;5.20;;
10031;SDS011;5056;44.272;19.892;2022-08-21T03:08:15;5.85;;;5.35;;
10031;SDS011;5056;44.272;19.892;2022-08-21T03:10:51;7.50;;;5.32;;
10031;SDS011;5056;44.272;19.892;2022-08-21T03:13:20;6.15;;;5.57;;
10031;SDS011;5056;44.272;19.892;2022-08-21T03:15:48;5.65;;;5.15;;
10031;SDS011;5056;44.272;19.892;2022-08-21T03:18:16;6.30;;;5.80;;
10031;SDS011;5056;44.272;19.892;2022-08-21T03:20:44;5.75;;;5.28;;
10031;SDS011;5056;44.272;19.892;2022-08-21T03:23:14;5.57;;;5.05;;
10031;SDS011;5056;44.272;19.892;2022-08-21T03:25:45;5.70;;;5.30;;
10031;SDS011;5056;44.272;19.892;2022-08-21T03:28:16;5.93;;;5.43;;
10031;SDS011;5056;44.272;19.892;2022-08-21T03:30:50;5.85;;;5.20;;
10031;SDS011;5056;44.272;19.892;2022-08-21T03:33:19;6.20;;;5.65;;
10031;SDS011;5056;44.272;19.892;2022-08-21T03:35:52;5.68;;;5.20;;
10031;SDS011;5056;44.272;19.892;2022-08-21T03:38:28;6.05;;;5.55;;
10031;SDS011;5056;44.272;19.892;2022-08-21T03:41:02;6.05;;;5.47;;
10031;SDS011;5056;44.272;19.892;2022-08-21T03:43:32;5.95;;;5.55;;
10031;SDS011;5056;44.272;19.892;2022-08-21T03:46:02;6.18;;;5.57;;
10031;SDS011;5056;44.272;19.892;2022-08-21T03:48:36;7.97;;;6.72;;
10031;SDS011;5056;44.272;19.892;2022-08-21T03:51:04;6.53;;;6.00;;
10031;SDS011;5056;44.272;19.892;2022-08-21T03:53:33;6.45;;;6.05;;
10031;SDS011;5056;44.272;19.892;2022-08-21T03:56:02;7.38;;;6.78;;
10031;SDS011;5056;44.272;19.892;2022-08-21T03:58:41;6.93;;;6.38;;
10031;SDS011;5056;44.272;19.892;2022-08-21T04:01:09;6.85;;;6.30;;
10031;SDS011;5056;44.272;19.892;2022-08-21T04:03:39;6.75;;;6.25;;
10031;SDS011;5056;44.272;19.892;2022-08-21T04:06:06;6.57;;;5.97;;
10031;SDS011;5056;44.272;19.892;2022-08-21T04:08:35;6.50;;;5.90;;
10031;SDS011;5056;44.272;19.892;2022-08-21T04:11:02;6.47;;;5.82;;
10031;SDS011;5056;44.272;19.892;2022-08-21T04:13:30;7.20;;;5.82;;
10031;SDS011;5056;44.272;19.892;2022-08-21T04:16:01;5.72;;;5.32;;
10031;SDS011;5056;44.272;19.892;2022-08-21T04:18:49;8.20;;;6.20;;
10031;SDS011;5056;44.272;19.892;2022-08-21T04:21:16;6.28;;;5.82;;
10031;SDS011;5056;44.272;19.892;2022-08-21T04:23:44;6.43;;;5.90;;
10031;SDS011;5056;44.272;19.892;2022-08-21T04:26:14;6.72;;;6.22;;
10031;SDS011;5056;44.272;19.892;2022-08-21T04:28:42;7.07;;;6.38;;
10031;SDS011;5056;44.272;19.892;2022-08-21T04:31:17;8.43;;;7.68;;
10031;SDS011;5056;44.272;19.892;2022-08-21T04:33:45;9.40;;;7.45;;
10031;SDS011;5056;44.272;19.892;2022-08-21T04:36:14;7.53;;;6.82;;
10031;SDS011;5056;44.272;19.892;2022-08-21T04:38:47;8.38;;;7.32;;
10031;SDS011;5056;44.272;19.892;2022-08-21T04:41:15;8.50;;;7.28;;
10031;SDS011;5056;44.272;19.892;2022-08-21T04:43:44;8.57;;;7.85;;
10031;SDS011;5056;44.272;19.892;2022-08-21T04:46:13;8.70;;;7.97;;
10031;SDS011;5056;44.272;19.892;2022-08-21T04:48:44;9.13;;;8.43;;
10031;SDS011;5056;44.272;19.892;2022-08-21T04:51:13;8.13;;;7.45;;
10031;SDS011;5056;44.272;19.892;2022-08-21T04:53:49;8.57;;;7.78;;
10031;SDS011;5056;44.272;19.892;2022-08-21T04:56:22;10.70;;;8.20;;
10031;SDS011;5056;44.272;19.892;2022-08-21T04:58:57;11.63;;;8.23;;
10031;SDS011;5056;44.272;19.892;2022-08-21T05:01:29;9.10;;;8.20;;
10031;SDS011;5056;44.272;19.892;2022-08-21T05:04:07;8.73;;;7.93;;
10031;SDS011;5056;44.272;19.892;2022-08-21T05:06:38;9.55;;;8.55;;
10031;SDS011;5056;44.272;19.892;2022-08-21T05:09:09;10.43;;;8.65;;
10031;SDS011;5056;44.272;19.892;2022-08-21T05:11:39;9.63;;;8.65;;
10031;SDS011;5056;44.272;19.892;2022-08-21T05:14:08;9.77;;;8.73;;
10031;SDS011;5056;44.272;19.892;2022-08-21T05:16:37;10.07;;;9.25;;
10031;SDS011;5056;44.272;19.892;2022-08-21T05:19:10;10.05;;;8.80;;
10031;SDS011;5056;44.272;19.892;2022-08-21T05:21:39;9.80;;;8.63;;
10031;SDS011;5056;44.272;19.892;2022-08-21T05:24:07;10.52;;;9.63;;
10031;SDS011;5056;44.272;19.892;2022-08-21T05:26:44;9.93;;;8.63;;
10031;SDS011;5056;44.272;19.892;2022-08-21T05:29:12;15.35;;;10.00;;
10031;SDS011;5056;44.272;19.892;2022-08-21T05:31:41;11.10;;;10.05;;
10031;SDS011;5056;44.272;19.892;2022-08-21T05:34:07;10.75;;;9.60;;
10031;SDS011;5056;44.272;19.892;2022-08-21T05:36:37;10.55;;;9.55;;
10031;SDS011;5056;44.272;19.892;2022-08-21T05:39:06;11.65;;;10.70;;
10031;SDS011;5056;44.272;19.892;2022-08-21T05:41:42;10.02;;;9.02;;
10031;SDS011;5056;44.272;19.892;2022-08-21T05:44:12;13.25;;;11.95;;
10031;SDS011;5056;44.272;19.892;2022-08-21T05:46:41;12.88;;;11.77;;
10031;SDS011;5056;44.272;19.892;2022-08-21T05:49:16;13.32;;;12.02;;
10031;SDS011;5056;44.272;19.892;2022-08-21T05:51:45;13.93;;;12.50;;
10031;SDS011;5056;44.272;19.892;2022-08-21T05:54:18;13.07;;;11.88;;
10031;SDS011;5056;44.272;19.892;2022-08-21T05:56:45;13.55;;;12.30;;
10031;SDS011;5056;44.272;19.892;2022-08-21T05:59:23;12.55;;;11.35;;
10031;SDS011;5056;44.272;19.892;2022-08-21T06:01:51;14.88;;;13.32;;
10031;SDS011;5056;44.272;19.892;2022-08-21T06:04:20;12.93;;;11.68;;
10031;SDS011;5056;44.272;19.892;2022-08-21T06:06:48;12.52;;;11.32;;
10031;SDS011;5056;44.272;19.892;2022-08-21T06:09:15;13.10;;;11.35;;
10031;SDS011;5056;44.272;19.892;2022-08-21T06:11:47;12.65;;;11.35;;
10031;SDS011;5056;44.272;19.892;2022-08-21T06:14:17;11.75;;;10.70;;
10031;SDS011;5056;44.272;19.892;2022-08-21T06:16:49;10.80;;;9.90;;
10031;SDS011;5056;44.272;19.892;2022-08-21T06:19:16;9.48;;;8.57;;
10031;SDS011;5056;44.272;19.892;2022-08-21T06:21:47;10.07;;;9.07;;
10031;SDS011;5056;44.272;19.892;2022-08-21T06:24:14;9.77;;;8.65;;
10031;SDS011;5056;44.272;19.892;2022-08-21T06:26:47;9.57;;;8.77;;
10031;SDS011;5056;44.272;19.892;2022-08-21T06:29:14;10.30;;;9.27;;
10031;SDS011;5056;44.272;19.892;2022-08-21T06:31:43;8.35;;;7.65;;
10031;SDS011;5056;44.272;19.892;2022-08-21T06:34:10;7.00;;;6.40;;
10031;SDS011;5056;44.272;19.892;2022-08-21T06:36:46;7.30;;;6.65;;
10031;SDS011;5056;44.272;19.892;2022-08-21T06:39:14;5.55;;;5.03;;
10031;SDS011;5056;44.272;19.892;2022-08-21T06:41:43;5.32;;;4.88;;
10031;SDS011;5056;44.272;19.892;2022-08-21T06:44:23;5.35;;;4.82;;
10031;SDS011;5056;44.272;19.892;2022-08-21T06:46:50;5.03;;;4.63;;
10031;SDS011;5056;44.272;19.892;2022-08-21T06:49:19;4.47;;;4.15;;
10031;SDS011;5056;44.272;19.892;2022-08-21T06:51:48;4.65;;;4.15;;
10031;SDS011;5056;44.272;19.892;2022-08-21T06:54:15;4.55;;;3.60;;
10031;SDS011;5056;44.272;19.892;2022-08-21T06:56:46;3.50;;;3.28;;
10031;SDS011;5056;44.272;19.892;2022-08-21T06:59:14;3.33;;;3.03;;
10031;SDS011;5056;44.272;19.892;2022-08-21T07:01:41;3.13;;;2.92;;
10031;SDS011;5056;44.272;19.892;2022-08-21T07:04:08;3.80;;;3.25;;
10031;SDS011;5056;44.272;19.892;2022-08-21T07:06:39;3.40;;;3.10;;
10031;SDS011;5056;44.272;19.892;2022-08-21T07:09:14;3.33;;;3.13;;
10031;SDS011;5056;44.272;19.892;2022-08-21T07:11:44;3.58;;;3.38;;
10031;SDS011;5056;44.272;19.892;2022-08-21T07:14:24;2.95;;;2.78;;
10031;SDS011;5056;44.272;19.892;2022-08-21T07:16:51;3.22;;;2.92;;
10031;SDS011;5056;44.272;19.892;2022-08-21T07:19:21;3.10;;;2.95;;
10031;SDS011;5056;44.272;19.892;2022-08-21T07:21:49;3.08;;;2.88;;
10031;SDS011;5056;44.272;19.892;2022-08-21T07:24:28;2.80;;;2.65;;
10031;SDS011;5056;44.272;19.892;2022-08-21T07:27:00;3.03;;;2.80;;
10031;SDS011;5056;44.272;19.892;2022-08-21T07:29:27;2.90;;;2.80;;
10031;SDS011;5056;44.272;19.892;2022-08-21T07:31:54;3.22;;;2.92;;
10031;SDS011;5056;44.272;19.892;2022-08-21T07:34:22;2.95;;;2.75;;
10031;SDS011;5056;44.272;19.892;2022-08-21T07:36:49;2.75;;;2.65;;
10031;SDS011;5056;44.272;19.892;2022-08-21T07:39:19;2.78;;;2.58;;
10031;SDS011;5056;44.272;19.892;2022-08-21T07:41:48;2.67;;;2.47;;
10031;SDS011;5056;44.272;19.892;2022-08-21T07:44:15;2.42;;;2.33;;
10031;SDS011;5056;44.272;19.892;2022-08-21T07:46:46;2.83;;;2.72;;
10031;SDS011;5056;44.272;19.892;2022-08-21T07:49:14;2.72;;;2.63;;
10031;SDS011;5056;44.272;19.892;2022-08-21T07:51:45;3.15;;;2.85;;
10031;SDS011;5056;44.272;19.892;2022-08-21T07:54:15;3.00;;;2.80;;
10031;SDS011;5056;44.272;19.892;2022-08-21T07:56:46;3.20;;;3.00;;
10031;SDS011;5056;44.272;19.892;2022-08-21T07:59:15;3.08;;;2.90;;
10031;SDS011;5056;44.272;19.892;2022-08-21T08:01:42;3.78;;;3.08;;
10031;SDS011;5056;44.272;19.892;2022-08-21T08:04:10;2.58;;;2.47;;
10031;SDS011;5056;44.272;19.892;2022-08-21T08:06:38;2.90;;;2.70;;
10031;SDS011;5056;44.272;19.892;2022-08-21T08:09:05;2.65;;;2.55;;
10031;SDS011;5056;44.272;19.892;2022-08-21T08:11:37;2.80;;;2.60;;
10031;SDS011;5056;44.272;19.892;2022-08-21T08:14:09;3.10;;;2.67;;
10031;SDS011;5056;44.272;19.892;2022-08-21T08:16:39;2.83;;;2.63;;
10031;SDS011;5056;44.272;19.892;2022-08-21T08:19:06;2.88;;;2.55;;
10031;SDS011;5056;44.272;19.892;2022-08-21T08:21:34;3.22;;;3.03;;
10031;SDS011;5056;44.272;19.892;2022-08-21T08:24:03;3.42;;;3.22;;
10031;SDS011;5056;44.272;19.892;2022-08-21T08:26:32;3.47;;;3.28;;
10031;SDS011;5056;44.272;19.892;2022-08-21T08:28:59;3.60;;;3.35;;
10031;SDS011;5056;44.272;19.892;2022-08-21T08:31:28;3.00;;;2.80;;
10031;SDS011;5056;44.272;19.892;2022-08-21T08:33:55;2.67;;;2.58;;
10031;SDS011;5056;44.272;19.892;2022-08-21T08:36:30;2.88;;;2.47;;
10031;SDS011;5056;44.272;19.892;2022-08-21T08:39:02;2.83;;;2.63;;
10031;SDS011;5056;44.272;19.892;2022-08-21T08:41:36;3.58;;;2.63;;
10031;SDS011;5056;44.272;19.892;2022-08-21T08:44:13;2.63;;;2.45;;
10031;SDS011;5056;44.272;19.892;2022-08-21T08:46:43;2.53;;;2.33;;
10031;SDS011;5056;44.272;19.892;2022-08-21T08:49:13;2.50;;;2.30;;
10031;SDS011;5056;44.272;19.892;2022-08-21T08:51:44;2.53;;;2.33;;
10031;SDS011;5056;44.272;19.892;2022-08-21T08:54:15;2.70;;;2.50;;
10031;SDS011;5056;44.272;19.892;2022-08-21T08:56:45;2.63;;;2.42;;
10031;SDS011;5056;44.272;19.892;2022-08-21T08:59:18;2.63;;;2.42;;
10031;SDS011;5056;44.272;19.892;2022-08-21T09:01:50;2.70;;;2.50;;
10031;SDS011;5056;44.272;19.892;2022-08-21T09:04:20;3.08;;;2.88;;
10031;SDS011;5056;44.272;19.892;2022-08-21T09:06:55;2.80;;;2.60;;
10031;SDS011;5056;44.272;19.892;2022-08-21T09:09:34;3.60;;;2.67;;
10031;SDS011;5056;44.272;19.892;2022-08-21T09:12:16;3.45;;;2.92;;
10031;SDS011;5056;44.272;19.892;2022-08-21T09:21:00;5.75;;;3.38;;
10031;SDS011;5056;44.272;19.892;2022-08-21T09:23:36;4.20;;;3.10;;
10031;SDS011;5056;44.272;19.892;2022-08-21T09:26:13;4.75;;;3.63;;
10031;SDS011;5056;44.272;19.892;2022-08-21T09:28:44;8.25;;;3.28;;
10031;SDS011;5056;44.272;19.892;2022-08-21T09:31:16;3.03;;;2.78;;
10031;SDS011;5056;44.272;19.892;2022-08-21T09:33:49;3.60;;;3.30;;
10031;SDS011;5056;44.272;19.892;2022-08-21T09:36:25;2.95;;;2.65;;
10031;SDS011;5056;44.272;19.892;2022-08-21T09:38:59;2.65;;;2.15;;
10031;SDS011;5056;44.272;19.892;2022-08-21T09:41:36;2.90;;;2.40;;
10031;SDS011;5056;44.272;19.892;2022-08-21T09:44:23;2.42;;;2.33;;
10031;SDS011;5056;44.272;19.892;2022-08-21T09:47:05;2.65;;;2.45;;
10031;SDS011;5056;44.272;19.892;2022-08-21T09:49:39;2.78;;;2.58;;
10031;SDS011;5056;44.272;19.892;2022-08-21T09:52:15;2.45;;;2.35;;
10031;SDS011;5056;44.272;19.892;2022-08-21T09:54:52;3.15;;;2.53;;
10031;SDS011;5056;44.272;19.892;2022-08-21T09:57:26;2.30;;;2.20;;
10031;SDS011;5056;44.272;19.892;2022-08-21T10:00:15;3.53;;;2.20;;
10031;SDS011;5056;44.272;19.892;2022-08-21T10:02:46;2.08;;;1.98;;
10031;SDS011;5056;44.272;19.892;2022-08-21T10:05:22;2.13;;;2.03;;
10031;SDS011;5056;44.272;19.892;2022-08-21T10:07:53;2.97;;;1.98;;
10031;SDS011;5056;44.272;19.892;2022-08-21T10:10:28;3.28;;;2.78;;
10031;SDS011;5056;44.272;19.892;2022-08-21T10:12:58;3.38;;;3.17;;
10031;SDS011;5056;44.272;19.892;2022-08-21T10:15:32;3.92;;;3.72;;
10031;SDS011;5056;44.272;19.892;2022-08-21T10:18:09;5.30;;;5.00;;
10031;SDS011;5056;44.272;19.892;2022-08-21T10:20:40;6.53;;;6.13;;
10031;SDS011;5056;44.272;19.892;2022-08-21T10:23:28;6.38;;;5.97;;
10031;SDS011;5056;44.272;19.892;2022-08-21T10:26:10;6.65;;;6.25;;
10031;SDS011;5056;44.272;19.892;2022-08-21T10:28:46;7.03;;;6.63;;
10031;SDS011;5056;44.272;19.892;2022-08-21T10:31:24;6.90;;;6.35;;
10031;SDS011;5056;44.272;19.892;2022-08-21T10:34:02;6.25;;;5.88;;
10031;SDS011;5056;44.272;19.892;2022-08-21T10:36:37;6.30;;;5.90;;
10031;SDS011;5056;44.272;19.892;2022-08-21T10:42:42;6.00;;;5.60;;
10031;SDS011;5056;44.272;19.892;2022-08-21T10:45:32;6.75;;;6.20;;
10031;SDS011;5056;44.272;19.892;2022-08-21T10:48:06;6.78;;;6.28;;
10031;SDS011;5056;44.272;19.892;2022-08-21T10:53:41;6.25;;;5.88;;
10031;SDS011;5056;44.272;19.892;2022-08-21T10:56:15;6.20;;;5.80;;
10031;SDS011;5056;44.272;19.892;2022-08-21T10:58:56;6.28;;;5.88;;
10031;SDS011;5056;44.272;19.892;2022-08-21T11:01:46;5.95;;;5.40;;
10031;SDS011;5056;44.272;19.892;2022-08-21T11:04:18;5.75;;;5.45;;
10031;SDS011;5056;44.272;19.892;2022-08-21T11:06:50;5.60;;;5.20;;
10031;SDS011;5056;44.272;19.892;2022-08-21T11:09:20;5.90;;;5.57;;
10031;SDS011;5056;44.272;19.892;2022-08-21T11:11:50;5.97;;;5.55;;
10031;SDS011;5056;44.272;19.892;2022-08-21T11:14:31;6.38;;;5.78;;
10031;SDS011;5056;44.272;19.892;2022-08-21T11:17:14;5.88;;;5.38;;
10031;SDS011;5056;44.272;19.892;2022-08-21T11:19:45;6.38;;;5.88;;
10031;SDS011;5056;44.272;19.892;2022-08-21T11:22:23;5.78;;;5.38;;
10031;SDS011;5056;44.272;19.892;2022-08-21T11:24:59;5.93;;;5.53;;
10031;SDS011;5056;44.272;19.892;2022-08-21T11:27:30;5.70;;;5.30;;
10031;SDS011;5056;44.272;19.892;2022-08-21T11:30:03;5.00;;;4.70;;
10031;SDS011;5056;44.272;19.892;2022-08-21T11:32:42;5.10;;;4.80;;
10031;SDS011;5056;44.272;19.892;2022-08-21T11:35:20;6.00;;;5.50;;
10031;SDS011;5056;44.272;19.892;2022-08-21T11:37:57;5.80;;;5.40;;
10031;SDS011;5056;44.272;19.892;2022-08-21T11:40:33;5.63;;;5.30;;
10031;SDS011;5056;44.272;19.892;2022-08-21T11:43:16;6.03;;;5.43;;
10031;SDS011;5056;44.272;19.892;2022-08-21T11:45:47;5.30;;;4.90;;
10031;SDS011;5056;44.272;19.892;2022-08-21T11:48:21;6.03;;;5.45;;
10031;SDS011;5056;44.272;19.892;2022-08-21T11:51:16;6.50;;;5.88;;
10031;SDS011;5056;44.272;19.892;2022-08-21T11:53:46;8.50;;;7.90;;
10031;SDS011;5056;44.272;19.892;2022-08-21T11:56:18;11.88;;;10.85;;
10031;SDS011;5056;44.272;19.892;2022-08-21T11:58:49;12.55;;;11.45;;
10031;SDS011;5056;44.272;19.892;2022-08-21T12:01:21;13.95;;;12.65;;
10031;SDS011;5056;44.272;19.892;2022-08-21T12:03:52;13.20;;;12.20;;
10031;SDS011;5056;44.272;19.892;2022-08-21T12:06:27;15.18;;;13.88;;
10031;SDS011;5056;44.272;19.892;2022-08-21T12:08:58;14.63;;;13.35;;
10031;SDS011;5056;44.272;19.892;2022-08-21T12:11:26;14.13;;;12.98;;
10031;SDS011;5056;44.272;19.892;2022-08-21T12:13:55;16.33;;;14.95;;
10031;SDS011;5056;44.272;19.892;2022-08-21T12:16:33;18.75;;;16.90;;
10031;SDS011;5056;44.272;19.892;2022-08-21T12:19:05;20.00;;;18.30;;
10031;SDS011;5056;44.272;19.892;2022-08-21T12:21:33;21.00;;;19.10;;
10031;SDS011;5056;44.272;19.892;2022-08-21T12:24:02;22.45;;;20.27;;
10031;SDS011;5056;44.272;19.892;2022-08-21T12:26:32;26.27;;;23.88;;
10031;SDS011;5056;44.272;19.892;2022-08-21T12:32:19;28.60;;;25.90;;
10031;SDS011;5056;44.272;19.892;2022-08-21T12:34:52;31.52;;;28.75;;
10031;SDS011;5056;44.272;19.892;2022-08-21T12:37:34;29.77;;;26.85;;
10031;SDS011;5056;44.272;19.892;2022-08-21T12:40:20;28.13;;;25.52;;
10031;SDS011;5056;44.272;19.892;2022-08-21T12:42:50;28.38;;;25.77;;
10031;SDS011;5056;44.272;19.892;2022-08-21T12:45:21;28.10;;;25.55;;
10031;SDS011;5056;44.272;19.892;2022-08-21T12:47:55;27.70;;;25.00;;
10031;SDS011;5056;44.272;19.892;2022-08-21T12:50:26;29.25;;;25.65;;
10031;SDS011;5056;44.272;19.892;2022-08-21T12:52:59;26.27;;;23.88;;
10031;SDS011;5056;44.272;19.892;2022-08-21T12:55:33;26.40;;;24.05;;
10031;SDS011;5056;44.272;19.892;2022-08-21T12:58:06;25.23;;;22.83;;
10031;SDS011;5056;44.272;19.892;2022-08-21T13:00:47;20.85;;;18.95;;
10031;SDS011;5056;44.272;19.892;2022-08-21T13:06:17;13.70;;;12.50;;
10031;SDS011;5056;44.272;19.892;2022-08-21T13:08:47;12.98;;;11.82;;
10031;SDS011;5056;44.272;19.892;2022-08-21T13:11:23;13.23;;;12.07;;
10031;SDS011;5056;44.272;19.892;2022-08-21T13:13:51;13.80;;;12.60;;
10031;SDS011;5056;44.272;19.892;2022-08-21T13:16:20;13.85;;;12.52;;
10031;SDS011;5056;44.272;19.892;2022-08-21T13:18:55;12.18;;;10.85;;
10031;SDS011;5056;44.272;19.892;2022-08-21T13:21:27;11.68;;;9.82;;
10031;SDS011;5056;44.272;19.892;2022-08-21T13:24:13;13.93;;;12.73;;
10031;SDS011;5056;44.272;19.892;2022-08-21T13:26:42;11.18;;;10.18;;
10031;SDS011;5056;44.272;19.892;2022-08-21T13:29:10;10.85;;;9.85;;
10031;SDS011;5056;44.272;19.892;2022-08-21T13:31:40;11.30;;;10.27;;
10031;SDS011;5056;44.272;19.892;2022-08-21T13:34:14;17.33;;;15.52;;
10031;SDS011;5056;44.272;19.892;2022-08-21T13:36:42;18.65;;;16.10;;
10031;SDS011;5056;44.272;19.892;2022-08-21T13:39:14;20.35;;;18.27;;
10031;SDS011;5056;44.272;19.892;2022-08-21T13:41:44;19.25;;;17.30;;
10031;SDS011;5056;44.272;19.892;2022-08-21T13:44:17;16.23;;;14.73;;
10031;SDS011;5056;44.272;19.892;2022-08-21T13:46:46;17.23;;;15.63;;
10031;SDS011;5056;44.272;19.892;2022-08-21T13:49:18;15.57;;;14.18;;
10031;SDS011;5056;44.272;19.892;2022-08-21T13:51:46;16.05;;;14.43;;
10031;SDS011;5056;44.272;19.892;2022-08-21T13:54:21;16.00;;;14.70;;
10031;SDS011;5056;44.272;19.892;2022-08-21T13:56:53;18.90;;;17.05;;
10031;SDS011;5056;44.272;19.892;2022-08-21T13:59:24;19.38;;;17.55;;
10031;SDS011;5056;44.272;19.892;2022-08-21T14:01:57;18.48;;;16.75;;
10031;SDS011;5056;44.272;19.892;2022-08-21T14:04:31;16.85;;;15.38;;
10031;SDS011;5056;44.272;19.892;2022-08-21T14:07:01;14.98;;;13.68;;
10031;SDS011;5056;44.272;19.892;2022-08-21T14:09:30;14.93;;;13.38;;
10031;SDS011;5056;44.272;19.892;2022-08-21T14:11:59;13.38;;;12.18;;
10031;SDS011;5056;44.272;19.892;2022-08-21T14:14:29;13.32;;;12.05;;
10031;SDS011;5056;44.272;19.892;2022-08-21T14:16:59;11.80;;;10.90;;
10031;SDS011;5056;44.272;19.892;2022-08-21T14:19:28;10.73;;;9.82;;
10031;SDS011;5056;44.272;19.892;2022-08-21T14:22:12;11.70;;;10.70;;
10031;SDS011;5056;44.272;19.892;2022-08-21T14:24:49;11.57;;;10.68;;
10031;SDS011;5056;44.272;19.892;2022-08-21T14:27:17;12.10;;;11.10;;
10031;SDS011;5056;44.272;19.892;2022-08-21T14:29:44;15.07;;;13.63;;
10031;SDS011;5056;44.272;19.892;2022-08-21T14:32:13;15.63;;;14.23;;
10031;SDS011;5056;44.272;19.892;2022-08-21T14:34:47;14.95;;;13.75;;
10031;SDS011;5056;44.272;19.892;2022-08-21T14:37:15;16.80;;;15.30;;
10031;SDS011;5056;44.272;19.892;2022-08-21T14:39:45;16.20;;;14.85;;
10031;SDS011;5056;44.272;19.892;2022-08-21T14:42:12;15.65;;;14.40;;
10031;SDS011;5056;44.272;19.892;2022-08-21T14:44:40;17.38;;;15.77;;
10031;SDS011;5056;44.272;19.892;2022-08-21T14:47:08;14.73;;;13.48;;
10031;SDS011;5056;44.272;19.892;2022-08-21T14:49:35;15.48;;;14.25;;
10031;SDS011;5056;44.272;19.892;2022-08-21T14:52:04;16.98;;;15.52;;
10031;SDS011;5056;44.272;19.892;2022-08-21T14:54:36;15.90;;;14.50;;
10031;SDS011;5056;44.272;19.892;2022-08-21T14:57:08;14.55;;;13.45;;
10031;SDS011;5056;44.272;19.892;2022-08-21T15:05:41;14.55;;;13.13;;
10031;SDS011;5056;44.272;19.892;2022-08-21T15:08:10;14.27;;;13.02;;
10031;SDS011;5056;44.272;19.892;2022-08-21T15:10:37;14.38;;;13.07;;
10031;SDS011;5056;44.272;19.892;2022-08-21T15:13:04;13.27;;;12.07;;
10031;SDS011;5056;44.272;19.892;2022-08-21T15:15:34;11.82;;;10.93;;
10031;SDS011;5056;44.272;19.892;2022-08-21T15:18:07;11.43;;;10.52;;
10031;SDS011;5056;44.272;19.892;2022-08-21T15:20:35;13.85;;;12.70;;
10031;SDS011;5056;44.272;19.892;2022-08-21T15:23:03;15.35;;;14.05;;
10031;SDS011;5056;44.272;19.892;2022-08-21T15:25:33;17.25;;;15.82;;
10031;SDS011;5056;44.272;19.892;2022-08-21T15:28:15;22.58;;;20.38;;
10031;SDS011;5056;44.272;19.892;2022-08-21T15:30:44;23.60;;;21.23;;
10031;SDS011;5056;44.272;19.892;2022-08-21T15:33:26;20.90;;;19.02;;
10031;SDS011;5056;44.272;19.892;2022-08-21T15:35:58;23.10;;;20.90;;
10031;SDS011;5056;44.272;19.892;2022-08-21T15:38:26;21.85;;;19.70;;
10031;SDS011;5056;44.272;19.892;2022-08-21T15:41:08;21.10;;;19.23;;